createdAt,value
2018-07-15T00:01:34.452Z,101519.90
2018-07-15T00:04:02.589Z,101522.86
2018-07-15T00:06:30.727Z,101516.77
2018-07-15T00:08:58.850Z,101516.38
2018-07-15T00:11:27.021Z,101516.22
2018-07-15T00:13:55.201Z,101522.94
2018-07-15T00:16:23.352Z,101527.52
2018-07-15T00:18:51.474Z,101527.59
2018-07-15T00:21:19.628Z,101523.66
2018-07-15T00:23:47.795Z,101520.88
2018-07-15T00:26:15.991Z,101523.66
2018-07-15T00:28:44.141Z,101522.03
2018-07-15T00:31:12.285Z,101522.03
2018-07-15T00:33:40.510Z,101519.95
2018-07-15T00:36:08.665Z,101520.88
2018-07-15T00:38:36.797Z,101518.25
2018-07-15T00:41:04.970Z,101520.67
2018-07-15T00:43:33.163Z,101518.20
2018-07-15T00:46:01.321Z,101520.97
2018-07-15T00:48:29.485Z,101524.98
2018-07-15T00:50:57.630Z,101522.05
2018-07-15T00:53:25.793Z,101521.89
2018-07-15T00:55:53.911Z,101519.80
2018-07-15T00:58:22.070Z,101519.72
2018-07-15T01:00:55.493Z,101522.20
2018-07-15T01:03:23.711Z,101519.80
2018-07-15T01:05:51.897Z,101523.20
2018-07-15T01:08:20.088Z,101521.58
2018-07-15T01:10:48.286Z,101521.12
2018-07-15T01:13:16.440Z,101522.48
2018-07-15T01:15:44.622Z,101529.50
2018-07-15T01:18:12.778Z,101525.28
2018-07-15T01:20:40.978Z,101522.87
2018-07-15T01:23:09.150Z,101529.42
2018-07-15T01:25:37.323Z,101529.88
2018-07-15T01:28:05.657Z,101532.76
2018-07-15T01:30:33.837Z,101525.95
2018-07-15T01:33:02.018Z,101526.80
2018-07-15T01:35:30.165Z,101528.19
2018-07-15T01:37:58.327Z,101527.55
2018-07-15T01:40:26.508Z,101526.00
2018-07-15T01:42:54.680Z,101525.33
2018-07-15T01:45:22.951Z,101523.38
2018-07-15T01:47:51.135Z,101519.77
2018-07-15T01:50:19.689Z,101526.46
2018-07-15T01:52:47.905Z,101517.45
2018-07-15T01:55:16.091Z,101517.35
2018-07-15T01:57:44.334Z,101520.08
2018-07-15T02:00:12.496Z,101517.00
2018-07-15T02:02:40.643Z,101518.34
2018-07-15T02:05:08.828Z,101519.66
2018-07-15T02:07:37.853Z,101515.66
2018-07-15T02:10:06.101Z,101521.18
2018-07-15T02:12:34.271Z,101527.41
2018-07-15T02:15:02.394Z,101527.86
2018-07-15T02:17:30.602Z,101519.86
2018-07-15T02:19:58.774Z,101524.05
2018-07-15T02:22:26.971Z,101517.49
2018-07-15T02:24:55.105Z,101521.10
2018-07-15T02:27:23.309Z,101518.70
2018-07-15T02:29:51.492Z,101515.69
2018-07-15T02:32:19.645Z,101510.63
2018-07-15T02:34:47.814Z,101513.38
2018-07-15T02:37:15.946Z,101516.99
2018-07-15T02:39:44.093Z,101518.05
2018-07-15T02:42:12.245Z,101519.61
2018-07-15T02:44:41.353Z,101515.22
2018-07-15T02:47:09.475Z,101512.07
2018-07-15T02:49:38.105Z,101515.64
2018-07-15T02:52:06.449Z,101515.39
2018-07-15T02:54:34.614Z,101519.20
2018-07-15T02:57:02.779Z,101520.72
2018-07-15T02:59:30.951Z,101511.73
2018-07-15T03:01:59.081Z,101519.84
2018-07-15T03:04:27.284Z,101514.77
2018-07-15T03:06:55.436Z,101517.89
2018-07-15T03:09:23.598Z,101513.50
2018-07-15T03:11:51.796Z,101511.14
2018-07-15T03:14:19.966Z,101511.98
2018-07-15T03:16:48.102Z,101511.98
2018-07-15T03:19:16.244Z,101511.73
2018-07-15T03:21:44.429Z,101508.86
2018-07-15T03:24:12.620Z,101513.91
2018-07-15T03:26:40.823Z,101511.69
2018-07-15T03:29:08.985Z,101506.70
2018-07-15T03:31:37.152Z,101507.16
2018-07-15T03:34:05.355Z,101512.58
2018-07-15T03:36:33.502Z,101516.52
2018-07-15T03:39:01.654Z,101513.23
2018-07-15T03:41:29.895Z,101516.91
2018-07-15T03:43:58.118Z,101511.98
2018-07-15T03:46:26.276Z,101514.22
2018-07-15T03:48:54.567Z,101518.81
2018-07-15T03:51:22.790Z,101516.13
2018-07-15T03:53:51.026Z,101517.16
2018-07-15T03:56:19.237Z,101521.73
2018-07-15T03:58:47.438Z,101515.78
2018-07-15T04:01:15.662Z,101517.09
2018-07-15T04:03:43.917Z,101515.53
2018-07-15T04:06:12.086Z,101516.03
2018-07-15T04:08:40.311Z,101517.17
2018-07-15T04:11:08.445Z,101514.23
2018-07-15T04:13:36.604Z,101517.38
2018-07-15T04:16:04.784Z,101513.59
2018-07-15T04:18:32.893Z,101514.77
2018-07-15T04:21:01.069Z,101509.84
2018-07-15T04:23:29.237Z,101510.59
2018-07-15T04:25:57.384Z,101519.30
2018-07-15T04:28:25.555Z,101517.87
2018-07-15T04:30:53.677Z,101518.25
2018-07-15T04:33:21.836Z,101516.72
2018-07-15T04:35:49.968Z,101507.98
2018-07-15T04:38:18.153Z,101509.94
2018-07-15T04:40:46.345Z,101509.61
2018-07-15T04:43:14.578Z,101511.59
2018-07-15T04:45:42.706Z,101512.07
2018-07-15T04:48:10.926Z,101507.64
2018-07-15T04:50:39.301Z,101510.38
2018-07-15T04:53:07.528Z,101515.23
2018-07-15T04:55:35.689Z,101508.30
2018-07-15T04:58:03.934Z,101510.81
2018-07-15T05:00:32.233Z,101515.67
2018-07-15T05:03:00.446Z,101514.66
2018-07-15T05:05:28.624Z,101521.82
2018-07-15T05:07:56.878Z,101526.39
2018-07-15T05:10:25.011Z,101521.80
2018-07-15T05:12:53.225Z,101525.52
2018-07-15T05:15:21.385Z,101522.09
2018-07-15T05:17:49.603Z,101521.72
2018-07-15T05:20:17.831Z,101516.61
2018-07-15T05:22:46.033Z,101520.03
2018-07-15T05:25:14.216Z,101518.78
2018-07-15T05:27:42.405Z,101523.06
2018-07-15T05:30:10.565Z,101526.09
2018-07-15T05:32:38.702Z,101526.23
2018-07-15T05:35:06.908Z,101528.89
2018-07-15T05:37:34.984Z,101523.28
2018-07-15T05:40:03.230Z,101534.16
2018-07-15T05:42:31.399Z,101530.62
2018-07-15T05:44:59.577Z,101525.13
2018-07-15T05:47:27.735Z,101531.05
2018-07-15T05:49:55.888Z,101532.13
2018-07-15T05:52:24.134Z,101525.59
2018-07-15T05:54:52.298Z,101523.41
2018-07-15T05:57:20.481Z,101526.48
2018-07-15T05:59:48.642Z,101532.28
2018-07-15T06:02:16.830Z,101530.38
2018-07-15T06:04:45.006Z,101529.12
2018-07-15T06:07:13.143Z,101534.11
2018-07-15T06:09:42.268Z,101532.23
2018-07-15T06:12:10.463Z,101529.72
2018-07-15T06:14:38.638Z,101532.99
2018-07-15T06:17:06.812Z,101530.59
2018-07-15T06:19:34.976Z,101536.38
2018-07-15T06:22:03.109Z,101539.94
2018-07-15T06:24:31.279Z,101546.29
2018-07-15T06:26:59.498Z,101547.16
2018-07-15T06:29:27.618Z,101543.79
2018-07-15T06:31:55.842Z,101547.90
2018-07-15T06:34:24.090Z,101548.33
2018-07-15T06:36:52.246Z,101545.30
2018-07-15T06:39:20.422Z,101547.47
2018-07-15T06:41:48.589Z,101546.25
2018-07-15T06:44:16.735Z,101552.56
2018-07-15T06:46:44.950Z,101552.88
2018-07-15T06:49:13.146Z,101548.77
2018-07-15T06:51:41.327Z,101545.66
2018-07-15T06:54:09.474Z,101552.59
2018-07-15T06:56:37.623Z,101545.30
2018-07-15T06:59:05.804Z,101543.62
2018-07-15T07:01:34.002Z,101539.73
2018-07-15T07:04:02.129Z,101539.22
2018-07-15T07:06:30.257Z,101538.29
2018-07-15T07:08:58.482Z,101536.81
2018-07-15T07:11:26.666Z,101537.77
2018-07-15T07:13:54.821Z,101535.77
2018-07-15T07:16:23.015Z,101544.27
2018-07-15T07:18:51.190Z,101542.08
2018-07-15T07:21:19.338Z,101542.14
2018-07-15T07:23:47.509Z,101542.13
2018-07-15T07:26:15.646Z,101542.13
2018-07-15T07:28:43.835Z,101538.59
2018-07-15T07:31:11.974Z,101543.13
2018-07-15T07:33:40.179Z,101540.27
2018-07-15T07:36:08.397Z,101542.30
2018-07-15T07:38:36.591Z,101546.33
2018-07-15T07:41:04.789Z,101541.14
2018-07-15T07:43:32.977Z,101542.13
2018-07-15T07:46:01.155Z,101537.52
2018-07-15T07:48:29.347Z,101534.02
2018-07-15T07:50:57.787Z,101538.09
2018-07-15T07:53:26.053Z,101538.96
2018-07-15T07:55:54.224Z,101534.13
2018-07-15T07:58:22.403Z,101527.53
2018-07-15T08:00:50.574Z,101536.20
2018-07-15T08:03:18.698Z,101529.80
2018-07-15T08:05:46.973Z,101527.38
2018-07-15T08:08:15.161Z,101526.01
2018-07-15T08:10:43.407Z,101525.83
2018-07-15T08:13:11.562Z,101527.41
2018-07-15T08:15:39.764Z,101532.48
2018-07-15T08:18:07.926Z,101531.38
2018-07-15T08:20:36.062Z,101525.50
2018-07-15T08:23:04.230Z,101536.84
2018-07-15T08:25:32.405Z,101530.66
2018-07-15T08:28:00.621Z,101527.74
2018-07-15T08:31:39.599Z,101526.70
2018-07-15T08:34:08.043Z,101525.58
2018-07-15T08:36:36.246Z,101524.41
2018-07-15T08:39:06.050Z,101521.71
2018-07-15T08:41:34.367Z,101524.05
2018-07-15T08:44:02.566Z,101526.34
2018-07-15T08:46:30.705Z,101520.86
2018-07-15T08:48:58.912Z,101521.27
2018-07-15T08:51:27.066Z,101522.11
2018-07-15T08:53:55.212Z,101522.41
2018-07-15T08:56:23.393Z,101519.38
2018-07-15T08:58:51.677Z,101518.16
2018-07-15T09:01:19.992Z,101514.21
2018-07-15T09:03:48.155Z,101513.38
2018-07-15T09:06:16.520Z,101519.55
2018-07-15T09:08:44.731Z,101514.91
2018-07-15T09:11:12.921Z,101509.96
2018-07-15T09:13:41.165Z,101516.97
2018-07-15T09:16:09.348Z,101516.27
2018-07-15T09:18:37.566Z,101512.55
2018-07-15T09:21:05.754Z,101516.31
2018-07-15T09:23:33.941Z,101523.41
2018-07-15T09:26:02.149Z,101519.55
2018-07-15T09:28:30.298Z,101520.34
2018-07-15T09:30:58.476Z,101521.19
2018-07-15T09:33:26.598Z,101524.70
2018-07-15T09:35:54.748Z,101519.84
2018-07-15T09:38:22.887Z,101520.61
2018-07-15T09:40:51.057Z,101513.78
2018-07-15T09:43:19.274Z,101517.56
2018-07-15T09:45:47.466Z,101518.36
2018-07-15T09:48:15.700Z,101514.33
2018-07-15T09:50:43.879Z,101510.70
2018-07-15T09:53:12.021Z,101515.55
2018-07-15T09:55:40.244Z,101516.11
2018-07-15T09:58:08.581Z,101516.19
2018-07-15T10:00:42.212Z,101514.70
2018-07-15T10:03:10.366Z,101514.91
2018-07-15T10:05:38.495Z,101514.13
2018-07-15T10:08:06.689Z,101507.17
2018-07-15T10:10:34.900Z,101505.36
2018-07-15T10:13:03.133Z,101500.27
2018-07-15T10:15:31.290Z,101499.85
2018-07-15T10:17:59.546Z,101503.75
2018-07-15T10:20:27.767Z,101504.02
2018-07-15T10:22:55.952Z,101506.72
2018-07-15T10:25:24.141Z,101505.64
2018-07-15T10:27:52.383Z,101498.52
2018-07-15T10:30:20.619Z,101499.13
2018-07-15T10:32:48.770Z,101501.55
2018-07-15T10:35:17.049Z,101493.58
2018-07-15T10:37:45.323Z,101490.75
2018-07-15T10:40:13.506Z,101489.23
2018-07-15T10:42:41.694Z,101481.70
2018-07-15T10:45:09.920Z,101486.95
2018-07-15T10:47:38.089Z,101488.82
2018-07-15T10:50:06.250Z,101483.64
2018-07-15T10:52:34.407Z,101482.69
2018-07-15T10:55:02.606Z,101484.50
2018-07-15T10:57:30.896Z,101481.22
2018-07-15T10:59:59.104Z,101477.34
2018-07-15T11:02:27.247Z,101480.86
2018-07-15T11:04:55.432Z,101476.14
2018-07-15T11:07:23.625Z,101475.52
2018-07-15T11:09:51.793Z,101476.50
2018-07-15T11:12:19.914Z,101478.08
2018-07-15T11:14:48.014Z,101471.37
2018-07-15T11:17:16.243Z,101472.31
2018-07-15T11:19:44.424Z,101470.02
2018-07-15T11:22:12.666Z,101466.30
2018-07-15T11:24:40.785Z,101471.97
2018-07-15T11:27:09.131Z,101473.69
2018-07-15T11:29:38.085Z,101470.12
2018-07-15T11:32:06.231Z,101471.14
2018-07-15T11:34:34.428Z,101468.52
2018-07-15T11:37:02.747Z,101468.70
2018-07-15T11:39:30.954Z,101461.27
2018-07-15T11:41:59.213Z,101458.38
2018-07-15T11:44:27.497Z,101464.37
2018-07-15T11:46:55.691Z,101464.11
2018-07-15T11:49:23.886Z,101456.84
2018-07-15T11:51:52.155Z,101457.11
2018-07-15T11:54:20.386Z,101450.20
2018-07-15T11:56:48.678Z,101447.64
2018-07-15T11:59:16.857Z,101453.23
2018-07-15T12:01:45.231Z,101451.08
2018-07-15T12:04:13.586Z,101448.34
2018-07-15T12:06:41.905Z,101447.89
2018-07-15T12:09:10.330Z,101441.74
2018-07-15T12:11:40.391Z,101446.11
2018-07-15T12:14:11.943Z,101441.14
2018-07-15T12:16:40.308Z,101437.64
2018-07-15T12:19:12.663Z,101441.20
2018-07-15T12:21:44.652Z,101430.00
2018-07-15T12:24:12.842Z,101429.41
2018-07-15T12:26:41.081Z,101422.41
2018-07-15T12:29:09.295Z,101429.70
2018-07-15T12:31:37.858Z,101423.27
2018-07-15T12:34:06.028Z,101422.05
2018-07-15T12:36:34.177Z,101411.94
2018-07-15T12:39:02.427Z,101410.91
2018-07-15T12:41:30.581Z,101409.77
2018-07-15T12:43:58.768Z,101412.36
2018-07-15T12:46:26.874Z,101409.33
2018-07-15T12:48:55.049Z,101407.09
2018-07-15T12:51:23.361Z,101402.27
2018-07-15T12:53:51.551Z,101402.75
2018-07-15T12:56:19.766Z,101398.89
2018-07-15T12:58:48.034Z,101391.73
2018-07-15T13:01:16.257Z,101396.47
2018-07-15T13:03:44.491Z,101390.27
2018-07-15T13:06:12.683Z,101379.41
2018-07-15T13:08:40.961Z,101380.77
2018-07-15T13:11:10.012Z,101378.61
2018-07-15T13:13:38.137Z,101371.38
2018-07-15T13:16:06.310Z,101371.55
2018-07-15T13:18:34.509Z,101370.09
2018-07-15T13:21:02.626Z,101372.66
2018-07-15T13:23:30.763Z,101371.44
2018-07-15T13:25:58.985Z,101361.19
2018-07-15T13:28:27.178Z,101359.59
2018-07-15T13:30:55.443Z,101353.78
2018-07-15T13:33:23.586Z,101354.84
2018-07-15T13:35:51.723Z,101351.83
2018-07-15T13:38:19.865Z,101349.30
2018-07-15T13:40:48.031Z,101352.12
2018-07-15T13:43:16.242Z,101350.81
2018-07-15T13:45:44.516Z,101349.41
2018-07-15T13:48:12.716Z,101340.64
2018-07-15T13:50:41.000Z,101342.26
2018-07-15T13:53:09.129Z,101345.95
2018-07-15T13:55:37.337Z,101344.16
2018-07-15T13:58:05.652Z,101338.09
2018-07-15T14:00:33.837Z,101340.27
2018-07-15T14:03:02.022Z,101337.80
2018-07-15T14:05:30.196Z,101333.75
2018-07-15T14:07:58.442Z,101334.25
2018-07-15T14:10:26.589Z,101338.53
2018-07-15T14:12:54.738Z,101328.58
2018-07-15T14:15:23.011Z,101334.95
2018-07-15T14:17:51.109Z,101328.70
2018-07-15T14:20:19.320Z,101321.56
2018-07-15T14:22:47.556Z,101325.24
2018-07-15T14:25:15.674Z,101323.50
2018-07-15T14:27:43.906Z,101317.56
2018-07-15T14:30:12.072Z,101319.66
2018-07-15T14:32:40.294Z,101313.72
2018-07-15T14:35:09.139Z,101310.14
2018-07-15T14:37:37.276Z,101312.88
2018-07-15T14:40:05.595Z,101308.98
2018-07-15T14:42:33.796Z,101300.80
2018-07-15T14:45:01.970Z,101308.84
2018-07-15T14:47:30.091Z,101311.09
2018-07-15T14:49:58.284Z,101308.41
2018-07-15T14:52:26.510Z,101308.35
2018-07-15T14:54:54.678Z,101306.16
2018-07-15T14:57:22.851Z,101310.81
2018-07-15T14:59:51.005Z,101306.38
2018-07-15T15:02:19.174Z,101299.92
2018-07-15T15:04:47.325Z,101311.69
2018-07-15T15:07:16.110Z,101309.97
2018-07-15T15:09:44.264Z,101298.44
2018-07-15T15:12:12.409Z,101293.52
2018-07-15T15:14:40.566Z,101295.93
2018-07-15T15:17:08.734Z,101297.30
2018-07-15T15:29:38.584Z,101289.44
2018-07-15T15:34:57.375Z,101288.27
2018-07-15T15:37:25.607Z,101284.02
2018-07-15T15:39:53.770Z,101282.16
2018-07-15T15:42:22.003Z,101285.22
2018-07-15T15:44:50.247Z,101277.05
2018-07-15T15:47:18.360Z,101278.27
2018-07-15T15:49:46.514Z,101271.74
2018-07-15T15:52:14.809Z,101266.05
2018-07-15T15:54:42.959Z,101261.98
2018-07-15T15:57:11.233Z,101262.47
2018-07-15T15:59:39.413Z,101258.09
2018-07-15T16:02:07.579Z,101258.07
2018-07-15T16:04:35.780Z,101252.62
2018-07-15T16:07:04.003Z,101252.62
2018-07-15T16:09:32.130Z,101246.54
2018-07-15T16:12:00.250Z,101238.05
2018-07-15T16:14:28.482Z,101246.30
2018-07-15T16:16:56.634Z,101239.06
2018-07-15T16:19:24.836Z,101232.81
2018-07-15T16:21:53.061Z,101228.16
2018-07-15T16:24:21.200Z,101228.59
2018-07-15T16:26:49.334Z,101223.67
2018-07-15T16:29:17.482Z,101220.52
2018-07-15T16:31:45.711Z,101222.34
2018-07-15T16:34:13.886Z,101225.56
2018-07-15T16:36:42.057Z,101216.72
2018-07-15T16:39:10.625Z,101220.66
2018-07-15T16:41:38.790Z,101220.86
2018-07-15T16:44:06.962Z,101219.20
2018-07-15T16:46:35.090Z,101214.28
2018-07-15T16:49:03.195Z,101213.83
2018-07-15T16:51:31.303Z,101219.13
2018-07-15T16:53:59.493Z,101215.12
2018-07-15T16:56:27.619Z,101212.20
2018-07-15T16:58:55.742Z,101212.78
2018-07-15T17:01:23.909Z,101204.31
2018-07-15T17:03:52.038Z,101216.63
2018-07-15T17:06:20.204Z,101214.56
2018-07-15T17:08:48.357Z,101213.88
2018-07-15T17:11:16.534Z,101217.30
2018-07-15T17:13:44.792Z,101211.87
2018-07-15T17:16:12.897Z,101213.41
2018-07-15T17:18:41.087Z,101213.75
2018-07-15T17:21:09.237Z,101213.80
2018-07-15T17:23:37.441Z,101211.87
2018-07-15T17:26:05.598Z,101212.22
2018-07-15T17:28:33.756Z,101203.23
2018-07-15T17:31:01.961Z,101208.66
2018-07-15T17:33:30.104Z,101213.66
2018-07-15T17:35:58.282Z,101224.28
2018-07-15T17:38:26.447Z,101214.41
2018-07-15T17:40:54.586Z,101219.67
2018-07-15T17:43:22.770Z,101216.42
2018-07-15T17:45:51.090Z,101218.45
2018-07-15T17:48:19.225Z,101222.11
2018-07-15T17:50:47.370Z,101222.68
2018-07-15T17:53:15.501Z,101217.57
2018-07-15T17:55:43.646Z,101221.86
2018-07-15T17:58:11.814Z,101220.82
2018-07-15T18:00:39.931Z,101220.62
2018-07-15T18:03:08.057Z,101220.51
2018-07-15T18:05:36.174Z,101221.67
2018-07-15T18:08:04.327Z,101226.67
2018-07-15T18:10:32.510Z,101227.00
2018-07-15T18:13:00.652Z,101226.45
2018-07-15T18:15:28.778Z,101227.78
2018-07-15T18:17:56.918Z,101221.76
2018-07-15T18:20:25.096Z,101230.53
2018-07-15T18:22:53.213Z,101231.17
2018-07-15T18:25:21.351Z,101230.77
2018-07-15T18:27:49.498Z,101233.54
2018-07-15T18:30:17.626Z,101234.31
2018-07-15T18:32:45.784Z,101243.09
2018-07-15T18:35:13.930Z,101243.63
2018-07-15T18:37:42.341Z,101240.86
2018-07-15T18:40:10.473Z,101242.48
2018-07-15T18:42:38.617Z,101243.73
2018-07-15T18:45:06.858Z,101246.65
2018-07-15T18:47:34.975Z,101252.74
2018-07-15T18:50:03.261Z,101247.84
2018-07-15T18:52:31.393Z,101253.86
2018-07-15T18:54:59.548Z,101252.63
2018-07-15T18:57:27.744Z,101255.30
2018-07-15T18:59:55.864Z,101256.20
2018-07-15T19:02:24.014Z,101260.34
2018-07-15T19:04:52.157Z,101255.80
2018-07-15T19:07:20.319Z,101257.22
2018-07-15T19:09:48.481Z,101261.05
2018-07-15T19:12:16.595Z,101258.80
2018-07-15T19:14:44.746Z,101256.27
2018-07-15T19:17:12.969Z,101260.84
2018-07-15T19:19:41.325Z,101259.83
2018-07-15T19:22:09.514Z,101263.73
2018-07-15T19:24:37.760Z,101258.49
2018-07-15T19:27:05.844Z,101262.22
2018-07-15T19:29:34.002Z,101266.05
2018-07-15T19:32:02.161Z,101270.91
2018-07-15T19:34:30.286Z,101264.70
2018-07-15T19:36:58.473Z,101274.22
2018-07-15T19:39:26.642Z,101265.64
2018-07-15T19:41:54.808Z,101277.02
2018-07-15T19:44:22.984Z,101272.53
2018-07-15T19:46:51.152Z,101273.11
2018-07-15T19:49:19.316Z,101273.52
2018-07-15T19:51:47.526Z,101263.95
2018-07-15T19:54:15.666Z,101277.71
2018-07-15T19:56:43.829Z,101276.80
2018-07-15T19:59:11.992Z,101280.66
2018-07-15T20:01:40.180Z,101275.95
2018-07-15T20:04:08.326Z,101279.97
2018-07-15T20:06:36.548Z,101292.61
2018-07-15T20:09:05.161Z,101289.72
2018-07-15T20:11:33.281Z,101291.44
2018-07-15T20:14:01.447Z,101290.31
2018-07-15T20:16:29.749Z,101293.95
2018-07-15T20:18:57.869Z,101297.30
2018-07-15T20:21:25.983Z,101290.68
2018-07-15T20:23:54.090Z,101292.35
2018-07-15T20:26:22.227Z,101295.01
2018-07-15T20:28:50.401Z,101293.80
2018-07-15T20:31:18.552Z,101291.00
2018-07-15T20:33:46.691Z,101291.25
2018-07-15T20:36:14.903Z,101291.23
2018-07-15T20:38:43.065Z,101292.05
2018-07-15T20:41:11.197Z,101290.38
2018-07-15T20:43:39.305Z,101293.84
2018-07-15T20:46:07.692Z,101298.88
2018-07-15T20:48:35.867Z,101297.53
2018-07-15T20:51:04.037Z,101298.58
2018-07-15T20:53:32.140Z,101302.15
2018-07-15T20:56:00.278Z,101304.28
2018-07-15T20:58:28.422Z,101302.81
2018-07-15T21:00:56.673Z,101294.23
2018-07-15T21:03:24.849Z,101288.94
2018-07-15T21:05:53.003Z,101297.94
2018-07-15T21:08:21.160Z,101297.27
2018-07-15T21:10:49.327Z,101293.22
2018-07-15T21:13:17.494Z,101297.70
2018-07-15T21:15:45.646Z,101289.41
2018-07-15T21:18:13.858Z,101294.21
2018-07-15T21:20:42.036Z,101290.20
2018-07-15T21:23:10.216Z,101285.28
2018-07-15T21:25:38.457Z,101284.92
2018-07-15T21:28:06.654Z,101288.35
2018-07-15T21:30:34.820Z,101289.27
2018-07-15T21:33:02.995Z,101291.95
2018-07-15T21:35:31.159Z,101294.69
2018-07-15T21:37:59.338Z,101296.59
2018-07-15T21:40:27.513Z,101298.70
2018-07-15T21:42:55.657Z,101299.25
2018-07-15T21:45:23.812Z,101293.08
2018-07-15T21:47:51.954Z,101294.05
2018-07-15T21:50:20.160Z,101287.16
2018-07-15T21:52:48.600Z,101291.97
2018-07-15T21:55:16.763Z,101288.11
2018-07-15T21:57:44.927Z,101294.07
2018-07-15T22:00:13.092Z,101299.04
2018-07-15T22:02:41.241Z,101296.56
2018-07-15T22:05:09.426Z,101293.80
2018-07-15T22:07:48.886Z,101301.66
2018-07-15T22:10:24.343Z,101301.13
2018-07-15T22:12:52.503Z,101304.41
2018-07-15T22:15:20.650Z,101301.19
2018-07-15T22:17:48.802Z,101304.64
2018-07-15T22:20:16.938Z,101312.45
2018-07-15T22:22:45.077Z,101311.58
2018-07-15T22:25:13.265Z,101312.14
2018-07-15T22:27:41.448Z,101312.34
2018-07-15T22:30:09.619Z,101311.33
2018-07-15T22:32:37.775Z,101315.19
2018-07-15T22:35:05.957Z,101318.90
2018-07-15T22:37:34.181Z,101321.29
2018-07-15T22:40:02.385Z,101316.37
2018-07-15T22:42:30.554Z,101318.14
2018-07-15T22:44:58.701Z,101309.08
2018-07-15T22:47:26.915Z,101317.38
2018-07-15T22:49:55.109Z,101312.84
2018-07-15T22:52:23.337Z,101317.08
2018-07-15T22:54:51.499Z,101309.06
2018-07-15T22:57:19.725Z,101306.62
2018-07-15T22:59:47.849Z,101307.57
2018-07-15T23:02:15.997Z,101309.55
2018-07-15T23:04:56.970Z,101306.19
2018-07-15T23:07:25.152Z,101304.11
2018-07-15T23:09:53.302Z,101307.94
2018-07-15T23:12:21.453Z,101307.94
2018-07-15T23:14:49.608Z,101307.78
2018-07-15T23:17:17.737Z,101308.22
2018-07-15T23:19:45.917Z,101310.20
2018-07-15T23:22:14.177Z,101298.48
2018-07-15T23:24:42.352Z,101298.38
2018-07-15T23:27:10.530Z,101298.76
2018-07-15T23:29:38.648Z,101295.00
2018-07-15T23:32:06.841Z,101301.20
2018-07-15T23:34:34.997Z,101298.57
2018-07-15T23:37:03.161Z,101294.24
2018-07-15T23:39:31.357Z,101296.31
2018-07-15T23:41:59.634Z,101305.88
2018-07-15T23:44:27.801Z,101310.19
2018-07-15T23:46:55.972Z,101303.61
2018-07-15T23:49:24.128Z,101309.08
2018-07-15T23:51:52.287Z,101310.37
2018-07-15T23:54:20.431Z,101302.95
2018-07-15T23:56:48.584Z,101307.27
2018-07-15T23:59:16.818Z,101303.32
